24h
KLIENDITUGI:
Saartelennuliinid: +372 58856336 (24/7)
Estairi piletikassa lennujaamas:
+372 6058887; +372 55603687

 

06.04.2018 hommikune Transaviabaltika lend KTB670 kell 07:00 (kohalik aeg) Tallinn - Kärdla väljalend ja KTB671 kell 07:45 Kärdla – Tallinn väljalend hilineb 3,5 tundi. KTB670 TLL-KDL uus väljalennu aeg on kell 10:30 (kohalik aeg) ja KTB671 KDL – TLL uus väljalennu aeg on kell 11:15 (kohalik aeg). Lennu hilinemise põhjustab udu Kärdla lennujaamas. Reisist loobunud reisijatele tagastatakse piletiraha või broneeritakse reis tasuta ringi teisele Tallinn-Kärdla lennule. Lisainformatsioon telefonil 58856336. E-mai: [email protected]

EEKA Kärdla lennuväli FCEO32 EETN 060300

TAF EEKA 060300Z 0604/0611 20015KT 2000 RA BR OVC004

TEMPO 0604/0607 0700 FG VV002 BECMG 0607/0609 9999 BKN010=

METAR EEKA 060350Z 18008KT 3600 BR OVC002 03/03 Q0999=
Kuupäev: 
06/04/2018